Time;durP1;ratioP1;P1;durP2;ratioP2;P2;SDS_P1;SDS_P2;PMS_P1;PMS_P2;Temp;Humidity;BMP_temperature;BMP_pressure;BME280_temperature;BME280_humidity;BME280_pressure;Samples;Min_cycle;Max_cycle;Signal;HPM_P1;HPM_P2
2022/05/02 00:00:57;;;;;;;11.05;9.45;;;12.70;99.90;;;;;;4916761;29;20222;-81
2022/05/02 00:03:26;;;;;;;11.88;9.05;;;12.80;99.90;;;;;;4916596;29;20318;-81
2022/05/02 00:05:55;;;;;;;9.82;8.93;;;12.80;99.90;;;;;;4917050;29;20211;-81
2022/05/02 00:08:23;;;;;;;11.98;10.55;;;12.80;99.90;;;;;;4916760;29;20229;-81
2022/05/02 00:10:51;;;;;;;9.27;8.45;;;12.80;99.90;;;;;;4916737;29;20301;-81
2022/05/02 00:13:21;;;;;;;10.60;9.45;;;12.80;99.90;;;;;;4916486;29;20281;-81
2022/05/02 00:15:49;;;;;;;10.57;9.48;;;12.80;99.90;;;;;;4917147;29;20214;-82
2022/05/02 00:18:19;;;;;;;9.68;8.77;;;12.80;99.90;;;;;;4916719;29;20218;-81
2022/05/02 00:20:47;;;;;;;11.82;9.80;;;12.70;99.90;;;;;;4916516;29;20298;-81
2022/05/02 00:23:15;;;;;;;10.63;9.30;;;12.70;99.90;;;;;;4916909;29;20263;-81
2022/05/02 00:25:43;;;;;;;10.60;9.60;;;12.70;99.90;;;;;;4916567;29;20380;-81
2022/05/02 00:28:14;;;;;;;11.35;9.85;;;12.70;99.90;;;;;;4916851;29;20309;-81
2022/05/02 00:30:44;;;;;;;9.75;8.80;;;12.70;99.90;;;;;;4916294;29;20238;-81
2022/05/02 00:33:13;;;;;;;9.90;9.07;;;12.70;99.90;;;;;;4916874;29;20241;-81
2022/05/02 00:35:41;;;;;;;11.27;10.18;;;12.70;99.90;;;;;;4916424;29;20285;-81
2022/05/02 00:38:10;;;;;;;9.27;8.43;;;12.70;99.90;;;;;;4916513;29;20229;-80
2022/05/02 00:40:38;;;;;;;10.77;9.70;;;12.70;99.90;;;;;;4916487;29;20206;-81
2022/05/02 00:43:07;;;;;;;9.85;8.95;;;12.70;99.90;;;;;;4916634;29;20317;-81
2022/05/02 00:45:38;;;;;;;8.50;7.82;;;12.70;99.90;;;;;;4916244;29;20297;-81
2022/05/02 00:48:09;;;;;;;10.77;9.65;;;12.70;99.90;;;;;;4916121;29;20261;-81
2022/05/02 00:50:40;;;;;;;9.70;8.80;;;12.70;99.90;;;;;;4916133;29;20241;-81
2022/05/02 00:53:14;;;;;;;9.48;8.52;;;12.70;99.90;;;;;;4916386;29;20253;-81
2022/05/02 00:55:43;;;;;;;9.02;8.13;;;12.70;99.90;;;;;;4916207;29;20294;-81
2022/05/02 00:58:13;;;;;;;9.98;8.45;;;12.70;99.90;;;;;;4916723;29;20218;-81
2022/05/02 01:00:42;;;;;;;9.50;7.97;;;12.60;99.90;;;;;;4915907;29;20234;-81
2022/05/02 01:03:14;;;;;;;8.90;8.10;;;12.70;99.90;;;;;;4916056;29;20242;-81
2022/05/02 01:08:30;;;;;;;9.18;8.38;;;12.60;99.90;;;;;;4915548;29;20317;-81
2022/05/02 01:11:00;;;;;;;8.27;7.55;;;12.60;99.90;;;;;;4915966;29;20211;-82
2022/05/02 01:13:36;;;;;;;9.18;8.25;;;12.60;99.90;;;;;;4915831;29;20256;-82
2022/05/02 01:16:10;;;;;;;9.70;8.70;;;12.60;99.90;;;;;;4915989;29;20210;-82
2022/05/02 01:18:40;;;;;;;7.57;6.97;;;12.50;99.90;;;;;;4916502;29;20306;-82
2022/05/02 01:21:12;;;;;;;8.18;7.55;;;12.50;99.90;;;;;;4916118;29;20215;-82
2022/05/02 01:23:40;;;;;;;8.13;7.40;;;12.50;99.90;;;;;;4916715;29;20215;-81
2022/05/02 01:26:08;;;;;;;8.80;8.00;;;12.40;99.90;;;;;;4917132;29;20216;-81
2022/05/02 01:28:44;;;;;;;9.02;8.23;;;12.40;99.90;;;;;;4919234;29;20282;-81
2022/05/02 01:31:14;;;;;;;7.40;6.75;;;12.40;99.90;;;;;;4919782;29;20270;-81
2022/05/02 01:33:43;;;;;;;8.63;7.80;;;12.30;99.90;;;;;;4919802;29;20230;-82
2022/05/02 01:36:14;;;;;;;7.82;7.22;;;12.30;99.90;;;;;;4919712;29;20211;-82
2022/05/02 01:38:43;;;;;;;8.23;7.28;;;12.20;99.90;;;;;;4919462;29;20287;-81
2022/05/02 01:41:11;;;;;;;8.20;7.47;;;12.20;99.90;;;;;;4919469;29;20278;-81
2022/05/02 01:43:40;;;;;;;7.82;7.15;;;12.10;99.90;;;;;;4919379;29;20237;-81
2022/05/02 01:46:10;;;;;;;7.88;7.25;;;12.10;99.90;;;;;;4919541;29;20298;-81
2022/05/02 01:48:38;;;;;;;9.45;7.82;;;12.00;99.90;;;;;;4919554;29;20234;-82
2022/05/02 01:51:06;;;;;;;9.20;8.30;;;12.00;99.90;;;;;;4919338;29;20210;-82
2022/05/02 01:53:36;;;;;;;8.05;6.68;;;11.90;99.90;;;;;;4919304;29;20325;-82
2022/05/02 01:56:05;;;;;;;8.23;7.50;;;11.90;99.90;;;;;;4919471;29;20257;-81
2022/05/02 01:58:33;;;;;;;7.55;6.95;;;11.90;99.90;;;;;;4919597;29;20241;-82
2022/05/02 02:01:02;;;;;;;7.85;7.15;;;11.80;99.90;;;;;;4918978;29;20305;-81
2022/05/02 02:03:30;;;;;;;7.25;6.65;;;11.80;99.90;;;;;;4918994;29;20238;-81
2022/05/02 02:05:58;;;;;;;8.38;6.65;;;11.70;99.90;;;;;;4919153;29;20203;-83
2022/05/02 02:08:29;;;;;;;9.13;8.15;;;11.70;99.90;;;;;;4919131;29;20309;-82
2022/05/02 02:11:00;;;;;;;7.68;7.10;;;11.70;99.90;;;;;;4918838;29;20220;-82
2022/05/02 02:13:30;;;;;;;7.18;6.47;;;11.60;99.90;;;;;;4919088;29;20333;-82
2022/05/02 02:15:58;;;;;;;8.77;7.95;;;11.60;99.90;;;;;;4918711;29;20253;-82
2022/05/02 02:18:27;;;;;;;7.35;6.75;;;11.60;99.90;;;;;;4918695;29;20225;-82
2022/05/02 02:20:56;;;;;;;8.15;7.35;;;11.60;99.90;;;;;;4918576;29;20299;-82
2022/05/02 02:23:25;;;;;;;7.88;7.18;;;11.50;99.90;;;;;;4918953;29;20257;-82
2022/05/02 02:25:53;;;;;;;7.65;7.00;;;11.50;99.90;;;;;;4918807;29;20305;-82
2022/05/02 02:28:23;;;;;;;9.48;8.23;;;11.50;99.90;;;;;;4918508;29;20302;-82
2022/05/02 02:30:52;;;;;;;9.25;8.35;;;11.50;99.90;;;;;;4918447;29;20211;-81
2022/05/02 02:33:21;;;;;;;8.23;7.53;;;11.50;99.90;;;;;;4918891;29;20234;-82
2022/05/02 02:35:50;;;;;;;20.98;8.45;;;11.50;99.90;;;;;;4918543;29;20297;-82
2022/05/02 02:38:18;;;;;;;8.45;7.75;;;11.50;99.90;;;;;;4918322;29;20217;-82
2022/05/02 02:40:46;;;;;;;9.50;8.60;;;11.60;99.90;;;;;;4918101;29;20214;-82
2022/05/02 02:43:14;;;;;;;7.85;7.15;;;11.60;99.90;;;;;;4918609;29;20339;-82
2022/05/02 02:45:44;;;;;;;8.20;7.45;;;11.50;99.90;;;;;;4918336;29;20214;-81
2022/05/02 02:48:13;;;;;;;8.25;7.50;;;11.50;99.90;;;;;;4918605;29;20218;-81
2022/05/02 02:50:41;;;;;;;8.52;7.68;;;11.50;99.90;;;;;;4917964;29;20303;-81
2022/05/02 02:53:09;;;;;;;8.77;7.88;;;11.50;99.90;;;;;;4918099;29;20294;-81
2022/05/02 02:55:38;;;;;;;8.65;7.85;;;11.40;99.90;;;;;;4918193;29;20294;-82
2022/05/02 02:58:06;;;;;;;9.70;8.70;;;11.40;99.90;;;;;;4918216;29;20241;-82
2022/05/02 03:00:34;;;;;;;10.50;8.85;;;11.40;99.90;;;;;;4918042;29;20226;-81
2022/05/02 03:03:05;;;;;;;8.88;8.10;;;11.40;99.90;;;;;;4918607;29;20265;-82
2022/05/02 03:08:36;;;;;;;10.48;9.45;;;11.40;99.90;;;;;;4859943;29;20212;-81
2022/05/02 03:11:05;;;;;;;7.88;7.18;;;11.40;99.90;;;;;;4859819;29;20382;-81
2022/05/02 03:13:34;;;;;;;8.65;7.20;;;11.50;99.90;;;;;;4887193;29;20283;-82
2022/05/02 03:16:03;;;;;;;8.77;7.97;;;11.40;99.90;;;;;;4918071;29;20241;-81
2022/05/02 03:18:34;;;;;;;8.85;8.05;;;11.40;99.90;;;;;;4918154;29;20245;-82
2022/05/02 03:21:02;;;;;;;10.27;9.27;;;11.40;99.90;;;;;;4917335;29;20221;-81
2022/05/02 03:23:31;;;;;;;9.50;8.60;;;11.40;99.90;;;;;;4917763;29;20226;-81
2022/05/02 03:25:59;;;;;;;9.02;8.23;;;11.40;99.90;;;;;;4917739;29;20210;-81
2022/05/02 03:28:27;;;;;;;10.07;9.10;;;11.40;99.90;;;;;;4917693;29;20206;-81
2022/05/02 03:30:55;;;;;;;8.73;8.07;;;11.50;99.90;;;;;;4917163;29;20234;-81
2022/05/02 03:33:23;;;;;;;7.55;6.85;;;11.40;99.90;;;;;;4917512;29;20234;-82
2022/05/02 03:35:53;;;;;;;10.38;9.38;;;11.40;99.90;;;;;;4917866;29;20298;-82
2022/05/02 03:38:21;;;;;;;8.23;7.47;;;11.40;99.90;;;;;;4917619;29;20297;-81
2022/05/02 03:40:50;;;;;;;9.82;8.90;;;11.40;99.90;;;;;;4917205;29;20214;-81
2022/05/02 03:43:18;;;;;;;8.70;8.00;;;11.40;99.90;;;;;;4917460;29;20313;-82
2022/05/02 03:45:46;;;;;;;8.27;7.47;;;11.30;99.90;;;;;;4917011;29;20266;-81
2022/05/02 03:48:15;;;;;;;9.98;9.07;;;11.30;99.90;;;;;;4917022;29;20215;-81
2022/05/02 03:50:43;;;;;;;8.90;8.07;;;11.30;99.90;;;;;;4916669;29;20236;-81
2022/05/02 03:53:15;;;;;;;11.05;8.65;;;11.20;99.90;;;;;;4917255;29;20254;-81
2022/05/02 03:55:45;;;;;;;11.30;9.88;;;11.20;99.90;;;;;;4917191;29;20214;-81
2022/05/02 03:58:13;;;;;;;9.00;8.23;;;11.20;99.90;;;;;;4916934;29;20214;-81
2022/05/02 04:00:42;;;;;;;9.82;8.93;;;11.20;99.90;;;;;;4916655;29;20299;-82
2022/05/02 04:03:10;;;;;;;10.23;9.10;;;11.20;99.90;;;;;;4917041;29;20230;-81
2022/05/02 04:05:39;;;;;;;9.90;9.05;;;11.20;99.90;;;;;;4917174;29;20210;-81
2022/05/02 04:08:07;;;;;;;9.05;8.15;;;11.20;99.90;;;;;;4916963;29;20226;-81
2022/05/02 04:10:37;;;;;;;9.98;8.98;;;11.20;99.90;;;;;;4916691;29;20226;-81
2022/05/02 04:13:05;;;;;;;11.55;10.45;;;11.20;99.90;;;;;;4916580;29;20290;-81
2022/05/02 04:15:34;;;;;;;9.70;8.73;;;11.20;99.90;;;;;;4916965;29;20294;-81
2022/05/02 04:18:02;;;;;;;9.52;8.73;;;11.20;99.90;;;;;;4916699;29;20234;-81
2022/05/02 04:20:31;;;;;;;9.07;8.27;;;11.20;99.90;;;;;;4916620;29;20274;-81
2022/05/02 04:22:59;;;;;;;12.77;8.02;;;11.30;99.90;;;;;;4917110;29;20230;-81
2022/05/02 04:25:27;;;;;;;11.32;8.73;;;11.20;99.90;;;;;;4916455;29;20302;-81
2022/05/02 04:27:57;;;;;;;10.10;9.20;;;11.30;99.90;;;;;;4916218;29;20298;-81
2022/05/02 04:30:25;;;;;;;10.07;9.18;;;11.20;99.90;;;;;;4916376;29;20312;-81
2022/05/02 04:32:54;;;;;;;9.90;9.02;;;11.30;99.90;;;;;;4916678;29;20301;-81
2022/05/02 04:35:22;;;;;;;9.73;8.82;;;11.30;99.90;;;;;;4917010;29;20297;-81
2022/05/02 04:37:50;;;;;;;10.27;9.15;;;11.30;99.90;;;;;;4916713;29;20295;-81
2022/05/02 04:40:19;;;;;;;8.88;8.05;;;11.30;99.90;;;;;;4916119;29;20298;-82
2022/05/02 04:42:47;;;;;;;10.55;9.55;;;11.40;99.90;;;;;;4916278;29;20317;-81
2022/05/02 04:45:17;;;;;;;10.27;9.32;;;11.40;99.90;;;;;;4916612;29;20222;-81
2022/05/02 04:47:45;;;;;;;9.65;8.77;;;11.50;99.90;;;;;;4916820;29;20219;-81
2022/05/02 04:50:14;;;;;;;9.07;8.27;;;11.60;99.90;;;;;;4916209;29;20226;-81
2022/05/02 04:52:42;;;;;;;10.60;9.50;;;11.70;99.90;;;;;;4915998;29;20230;-82
2022/05/02 04:55:10;;;;;;;8.98;8.15;;;11.70;99.90;;;;;;4916373;29;20229;-81
2022/05/02 04:57:39;;;;;;;8.90;8.10;;;11.70;99.90;;;;;;4916364;29;20210;-81
2022/05/02 05:00:08;;;;;;;13.55;9.50;;;11.70;99.90;;;;;;4916188;29;20285;-81
2022/05/02 05:02:38;;;;;;;9.98;8.07;;;11.70;99.90;;;;;;4919915;29;20293;-81
2022/05/02 05:05:08;;;;;;;9.35;8.45;;;11.80;99.90;;;;;;4920133;29;20214;-81
2022/05/02 05:07:37;;;;;;;9.48;8.05;;;11.70;99.90;;;;;;4919847;29;20230;-81
2022/05/02 05:10:09;;;;;;;8.18;7.57;;;11.80;99.90;;;;;;4920010;29;20222;-81
2022/05/02 05:12:54;;;;;;;9.82;8.93;;;11.80;99.90;;;;;;4920135;29;20257;-82
2022/05/02 05:18:35;;;;;;;8.80;7.97;;;11.90;99.90;;;;;;4920357;29;20222;-81
2022/05/02 05:21:06;;;;;;;8.15;7.45;;;11.90;99.90;;;;;;4919903;29;20293;-82
2022/05/02 05:24:46;;;;;;;8.75;7.85;;;11.90;99.90;;;;;;4919754;29;20216;-81
2022/05/02 05:27:31;;;;;;;10.70;7.80;;;12.00;99.90;;;;;;4861771;29;20296;-81
2022/05/02 05:30:04;;;;;;;8.77;7.55;;;12.10;99.90;;;;;;4884570;29;20248;-81
2022/05/02 05:32:43;;;;;;;8.27;7.47;;;12.10;99.90;;;;;;4919757;29;20333;-81
2022/05/02 05:35:44;;;;;;;8.98;8.10;;;12.10;99.90;;;;;;4919837;29;20207;-82
2022/05/02 05:38:21;;;;;;;8.80;8.10;;;12.10;99.90;;;;;;4919712;29;20297;-81
2022/05/02 05:41:01;;;;;;;8.43;7.63;;;12.20;99.90;;;;;;4919748;29;20302;-81
2022/05/02 05:43:55;;;;;;;7.38;6.70;;;12.30;99.90;;;;;;4919867;29;20230;-81
2022/05/02 05:46:57;;;;;;;7.75;7.05;;;12.30;99.90;;;;;;4919480;29;20206;-81
2022/05/02 05:49:50;;;;;;;8.05;6.85;;;12.40;99.90;;;;;;4919446;29;20206;-81
2022/05/02 05:52:31;;;;;;;7.63;6.93;;;12.50;99.90;;;;;;4919176;29;20226;-81
2022/05/02 05:55:23;;;;;;;9.10;7.15;;;12.70;99.90;;;;;;4919446;29;20296;-81
2022/05/02 05:58:07;;;;;;;9.70;7.63;;;12.80;99.90;;;;;;4919208;29;20219;-81
2022/05/02 06:00:46;;;;;;;7.45;6.85;;;12.80;99.90;;;;;;4919102;29;20214;-81
2022/05/02 06:03:16;;;;;;;7.53;6.90;;;12.90;99.90;;;;;;4919131;29;20302;-82
2022/05/02 06:05:47;;;;;;;8.65;7.10;;;13.00;99.90;;;;;;4919185;29;20265;-81
2022/05/02 06:08:17;;;;;;;8.07;7.25;;;13.10;99.90;;;;;;4919079;29;20214;-81
2022/05/02 06:10:48;;;;;;;6.90;6.22;;;13.20;99.90;;;;;;4918940;29;20321;-82
2022/05/02 06:13:19;;;;;;;10.73;7.32;;;13.30;99.90;;;;;;4918480;29;20257;-81
2022/05/02 06:18:59;;;;;;;6.15;5.65;;;13.50;99.90;;;;;;4919489;29;20219;-81
2022/05/02 06:21:27;;;;;;;9.63;7.47;;;13.60;99.90;;;;;;4918445;29;20245;-81
2022/05/02 06:24:09;;;;;;;6.47;5.97;;;13.70;99.90;;;;;;4918832;29;20234;-81
2022/05/02 06:33:52;;;;;;;7.25;6.55;;;14.20;99.90;;;;;;4913467;29;20222;-82
2022/05/02 06:37:01;;;;;;;8.32;7.50;;;14.30;99.90;;;;;;4918343;29;20210;-78
2022/05/02 06:39:48;;;;;;;9.75;8.00;;;14.50;99.90;;;;;;4918834;29;20214;-79
2022/05/02 06:50:27;;;;;;;13.55;8.63;;;15.10;99.90;;;;;;4919898;29;20299;-81
2022/05/02 06:53:28;;;;;;;7.85;6.85;;;15.30;99.90;;;;;;4941612;28;20248;-80
2022/05/02 06:56:15;;;;;;;9.55;6.95;;;15.50;99.90;;;;;;4937299;29;20205;-81
2022/05/02 06:58:57;;;;;;;7.32;6.43;;;15.60;99.90;;;;;;4931260;29;20285;-81
2022/05/02 07:01:38;;;;;;;8.45;7.40;;;15.70;99.90;;;;;;4918651;29;20206;-81
2022/05/02 07:04:43;;;;;;;8.82;7.95;;;15.70;99.90;;;;;;4918999;29;20217;-81
2022/05/02 07:15:42;;;;;;;8.27;7.53;;;16.30;99.90;;;;;;4845117;29;20281;-81
2022/05/02 07:22:01;;;;;;;9.35;8.15;;;17.00;99.90;;;;;;4816931;29;20263;-80
2022/05/02 07:25:06;;;;;;;7.47;6.85;;;17.40;99.90;;;;;;4859765;29;20201;-80
2022/05/02 07:28:31;;;;;;;8.35;6.85;;;17.80;99.90;;;;;;4859904;29;20308;-80
2022/05/02 07:31:18;;;;;;;6.47;5.93;;;18.40;99.90;;;;;;4855929;29;20224;-80
2022/05/02 07:33:57;;;;;;;7.15;6.53;;;19.20;99.90;;;;;;4883284;29;20216;-80
2022/05/02 07:37:11;;;;;;;17.00;6.65;;;20.20;99.90;;;;;;4935810;29;20218;-80
2022/05/02 07:40:05;;;;;;;8.20;7.35;;;21.30;99.90;;;;;;4917535;29;20210;-80
2022/05/02 07:42:56;;;;;;;6.05;5.50;;;22.30;99.90;;;;;;4859317;29;20232;-78
2022/05/02 07:46:19;;;;;;;5.85;5.28;;;23.10;97.40;;;;;;4858616;29;20208;-80
2022/05/02 07:48:50;;;;;;;5.28;4.88;;;24.40;94.90;;;;;;4859779;29;20204;-79
2022/05/02 07:51:20;;;;;;;6.45;5.85;;;25.60;91.50;;;;;;4859873;29;20225;-79
2022/05/02 07:53:51;;;;;;;5.88;5.38;;;26.60;84.30;;;;;;4859715;29;20315;-79
2022/05/02 07:56:24;;;;;;;6.68;6.18;;;27.40;76.80;;;;;;4859612;29;20251;-79
2022/05/02 07:59:08;;;;;;;5.78;5.18;;;28.20;75.80;;;;;;4866390;29;20208;-78
2022/05/02 08:01:40;;;;;;;4.85;4.45;;;29.30;69.50;;;;;;4870560;29;20243;-78
2022/05/02 08:04:13;;;;;;;5.10;4.70;;;28.90;63.10;;;;;;4878251;29;20256;-78
2022/05/02 08:07:11;;;;;;;5.22;4.75;;;28.70;62.80;;;;;;4876408;29;20231;-78
2022/05/02 08:10:13;;;;;;;5.25;4.68;;;29.20;64.80;;;;;;4839434;29;20212;-79
2022/05/02 08:12:49;;;;;;;4.65;4.30;;;29.70;63.30;;;;;;4863085;29;20235;-79
2022/05/02 08:15:25;;;;;;;5.32;4.18;;;30.40;63.30;;;;;;4877683;29;20203;-83
2022/05/02 08:18:18;;;;;;;4.32;4.00;;;31.10;62.60;;;;;;4869595;29;20286;-83
2022/05/02 08:20:55;;;;;;;9.05;5.10;;;31.80;58.80;;;;;;4901391;29;20206;-83
2022/05/02 08:29:45;;;;;;;4.57;4.28;;;31.50;55.10;;;;;;4936688;29;20213;-83
2022/05/02 08:32:23;;;;;;;5.00;4.60;;;31.30;55.40;;;;;;4931800;29;20227;-82
2022/05/02 08:35:02;;;;;;;5.32;4.60;;;31.30;52.80;;;;;;4935835;29;20201;-83
2022/05/02 08:38:00;;;;;;;5.00;4.50;;;31.50;54.40;;;;;;4935643;29;20202;-82
2022/05/02 08:41:02;;;;;;;4.15;3.80;;;31.30;51.30;;;;;;4935192;29;20209;-83
2022/05/02 08:43:55;;;;;;;4.40;4.00;;;31.00;56.30;;;;;;4921461;29;20225;-84
2022/05/02 08:47:02;;;;;;;4.10;3.78;;;31.70;52.60;;;;;;4930981;29;20201;-83
2022/05/02 08:50:10;;;;;;;4.00;3.60;;;31.20;53.10;;;;;;4898871;29;20291;-83
2022/05/02 08:53:21;;;;;;;5.68;4.57;;;31.20;54.00;;;;;;4918628;29;20297;-82
2022/05/02 08:56:20;;;;;;;5.07;4.13;;;31.00;51.60;;;;;;4935898;29;20212;-82
2022/05/02 08:59:32;;;;;;;4.03;3.72;;;30.90;53.90;;;;;;4929637;29;20217;-83
2022/05/02 09:02:40;;;;;;;4.47;4.18;;;31.20;50.00;;;;;;4935773;29;20229;-82
2022/05/02 09:05:41;;;;;;;4.25;3.63;;;30.90;51.80;;;;;;4883388;29;20214;-83
2022/05/02 09:08:40;;;;;;;4.18;3.78;;;31.20;51.50;;;;;;4910445;29;20264;-82
2022/05/02 09:11:31;;;;;;;6.28;3.67;;;31.40;51.60;;;;;;4902631;29;20302;-83
2022/05/02 09:14:28;;;;;;;4.15;3.85;;;31.50;51.20;;;;;;4916885;29;20205;-83
2022/05/02 09:17:31;;;;;;;3.85;3.50;;;32.10;47.90;;;;;;4898018;29;20214;-83
2022/05/02 09:20:43;;;;;;;5.65;4.00;;;32.30;49.60;;;;;;4909459;29;20206;-83
2022/05/02 09:23:56;;;;;;;3.25;2.97;;;32.20;49.30;;;;;;4918673;29;20247;-83
2022/05/02 09:26:52;;;;;;;4.65;4.28;;;32.30;48.10;;;;;;4920942;29;20281;-83
2022/05/02 09:29:56;;;;;;;4.00;3.70;;;31.70;50.40;;;;;;4888792;29;20225;-82
2022/05/02 09:32:56;;;;;;;4.30;3.90;;;31.70;51.00;;;;;;4926329;29;20321;-83
2022/05/02 09:35:33;;;;;;;3.97;3.50;;;31.20;51.00;;;;;;4935574;29;20206;-83
2022/05/02 09:38:27;;;;;;;4.00;3.65;;;31.80;51.60;;;;;;4936165;29;20261;-83
2022/05/02 09:41:00;;;;;;;5.93;3.97;;;31.80;47.00;;;;;;4933481;29;20209;-84
2022/05/02 09:50:12;;;;;;;4.00;3.30;;;31.50;51.00;;;;;;4939348;29;20261;-78
2022/05/02 09:53:03;;;;;;;4.38;3.97;;;31.80;51.30;;;;;;4935825;29;20235;-79
2022/05/02 09:59:00;;;;;;;4.70;3.25;;;32.10;52.00;;;;;;4936666;29;20285;-80
2022/05/02 10:01:33;;;;;;;3.42;3.10;;;32.40;48.60;;;;;;4919195;29;20296;-81
2022/05/02 10:04:27;;;;;;;4.18;3.88;;;32.30;50.90;;;;;;4923640;29;20229;-81
2022/05/02 10:06:58;;;;;;;3.90;3.58;;;32.20;49.00;;;;;;4934880;29;20281;-81
2022/05/02 10:09:46;;;;;;;4.25;3.95;;;31.50;48.40;;;;;;4927378;29;20288;-80
2022/05/02 10:12:27;;;;;;;3.90;3.60;;;30.80;48.10;;;;;;4938637;29;20321;-81
2022/05/02 10:15:29;;;;;;;3.90;3.55;;;30.70;49.60;;;;;;4920000;29;20290;-82
2022/05/02 10:18:15;;;;;;;3.90;3.55;;;30.00;47.70;;;;;;4914419;29;20213;-82
2022/05/02 10:20:59;;;;;;;3.22;3.00;;;29.40;48.40;;;;;;4918771;29;20270;-82
2022/05/02 10:23:46;;;;;;;4.28;3.97;;;29.90;50.80;;;;;;4919518;29;20261;-82
2022/05/02 10:26:32;;;;;;;4.18;3.85;;;29.90;50.00;;;;;;4925652;29;20209;-82
2022/05/02 10:29:30;;;;;;;3.80;3.50;;;30.00;49.10;;;;;;4900464;29;20211;-82
2022/05/02 10:32:04;;;;;;;4.15;3.75;;;30.10;47.40;;;;;;4919879;29;20245;-82
2022/05/02 10:34:39;;;;;;;4.68;3.65;;;30.10;48.20;;;;;;4938467;29;20262;-82
2022/05/02 10:37:08;;;;;;;3.05;2.85;;;30.10;48.90;;;;;;4934100;29;20223;-82
2022/05/02 10:39:40;;;;;;;4.10;3.72;;;30.20;49.10;;;;;;4933397;29;20212;-83
2022/05/02 10:42:12;;;;;;;3.08;2.88;;;30.20;49.00;;;;;;4938234;29;20226;-83
2022/05/02 10:44:55;;;;;;;2.97;2.72;;;30.30;49.40;;;;;;4916767;29;20241;-83
2022/05/02 10:47:28;;;;;;;3.28;2.97;;;30.50;49.20;;;;;;4919718;29;20241;-83
2022/05/02 10:50:15;;;;;;;3.20;2.90;;;30.10;47.10;;;;;;4927491;29;20203;-82
2022/05/02 10:53:09;;;;;;;3.25;2.92;;;29.60;45.70;;;;;;4923387;29;20281;-83
2022/05/02 10:55:40;;;;;;;7.13;3.13;;;29.40;46.60;;;;;;4919591;29;20270;-83
2022/05/02 10:58:12;;;;;;;3.45;3.15;;;29.20;48.90;;;;;;4921313;29;20298;-83
2022/05/02 11:00:49;;;;;;;5.28;2.85;;;29.40;47.10;;;;;;4938308;29;20257;-82
2022/05/02 11:03:31;;;;;;;3.03;2.83;;;29.00;46.20;;;;;;4919688;29;20226;-81
2022/05/02 11:06:09;;;;;;;3.05;2.85;;;28.40;47.90;;;;;;4919123;29;20230;-83
2022/05/02 11:08:45;;;;;;;3.28;2.97;;;28.30;48.80;;;;;;4921948;29;20226;-83
2022/05/02 11:11:31;;;;;;;3.33;3.00;;;28.80;49.40;;;;;;4914731;29;20202;-83
2022/05/02 11:14:19;;;;;;;3.40;3.10;;;29.30;47.90;;;;;;4921352;29;20223;-83
2022/05/02 11:16:57;;;;;;;4.05;3.75;;;29.00;48.00;;;;;;4918533;29;20282;-83
2022/05/02 11:22:28;;;;;;;3.08;2.88;;;28.70;51.00;;;;;;4917699;29;20226;-83
2022/05/02 11:25:06;;;;;;;2.45;2.33;;;28.80;48.70;;;;;;4918189;29;20272;-83
2022/05/02 11:27:50;;;;;;;2.97;2.78;;;29.00;48.70;;;;;;4918374;29;20210;-83
2022/05/02 11:30:22;;;;;;;3.55;2.25;;;29.10;47.90;;;;;;4917695;29;20257;-83
2022/05/02 11:33:17;;;;;;;2.80;2.60;;;28.70;46.60;;;;;;4930283;29;20234;-83
2022/05/02 11:35:49;;;;;;;5.50;2.83;;;28.40;46.40;;;;;;4933870;29;20230;-83
2022/05/02 11:38:32;;;;;;;3.22;2.72;;;28.50;48.30;;;;;;4934920;29;20202;-83
2022/05/02 11:41:11;;;;;;;2.53;2.33;;;29.00;48.40;;;;;;4936781;29;20230;-83
2022/05/02 11:43:39;;;;;;;2.47;2.28;;;29.40;47.70;;;;;;4936788;29;20277;-83
2022/05/02 11:46:20;;;;;;;2.78;2.58;;;29.70;46.00;;;;;;4937111;29;20210;-83
2022/05/02 11:49:12;;;;;;;2.95;2.47;;;29.20;45.00;;;;;;4926172;29;20427;-83
2022/05/02 11:51:46;;;;;;;2.50;2.25;;;29.00;46.30;;;;;;4931753;29;20241;-83
2022/05/02 11:54:45;;;;;;;2.70;2.50;;;28.70;46.20;;;;;;4936065;29;20234;-83
2022/05/02 11:57:20;;;;;;;2.88;2.67;;;28.40;45.60;;;;;;4933515;29;20296;-84
2022/05/02 12:00:05;;;;;;;3.08;2.80;;;28.50;47.50;;;;;;4919856;29;20229;-83
2022/05/02 12:02:48;;;;;;;2.83;2.53;;;28.80;47.70;;;;;;4929118;29;20304;-83
2022/05/02 12:05:31;;;;;;;2.67;2.47;;;28.70;47.30;;;;;;4898801;29;20207;-83
2022/05/02 12:08:03;;;;;;;2.33;2.13;;;28.50;47.10;;;;;;4899124;29;20214;-84
2022/05/02 12:10:45;;;;;;;2.42;2.33;;;28.10;47.20;;;;;;4898144;29;20302;-83
2022/05/02 12:13:15;;;;;;;3.40;2.75;;;28.20;47.80;;;;;;4914057;29;20245;-84
2022/05/02 12:16:02;;;;;;;2.92;2.72;;;27.80;47.00;;;;;;4936316;29;20214;-83
2022/05/02 12:18:46;;;;;;;3.55;2.58;;;27.50;47.40;;;;;;4935489;29;20198;-83
2022/05/02 12:21:30;;;;;;;2.85;2.65;;;27.40;48.40;;;;;;4935964;29;20213;-83
2022/05/02 12:24:01;;;;;;;2.70;2.50;;;27.20;47.40;;;;;;4923060;29;20202;-83
2022/05/02 12:26:32;;;;;;;2.25;2.15;;;26.90;48.90;;;;;;4932623;29;20301;-82
2022/05/02 12:29:04;;;;;;;3.15;2.83;;;27.10;48.90;;;;;;4936170;29;20248;-83
2022/05/02 12:31:34;;;;;;;3.10;2.75;;;27.50;48.50;;;;;;4935523;29;20293;-83
2022/05/02 12:34:05;;;;;;;3.75;2.72;;;27.80;48.00;;;;;;4935796;29;20309;-83
2022/05/02 12:36:42;;;;;;;3.38;3.08;;;28.10;49.00;;;;;;4935960;29;20276;-82
2022/05/02 12:39:17;;;;;;;3.35;3.08;;;28.20;49.60;;;;;;4935694;29;20273;-82
2022/05/02 12:41:49;;;;;;;3.00;2.70;;;28.10;48.90;;;;;;4935425;29;20249;-83
2022/05/02 12:44:19;;;;;;;2.55;2.35;;;28.10;49.10;;;;;;4935706;29;20227;-83
2022/05/02 12:46:50;;;;;;;3.58;3.20;;;27.90;49.10;;;;;;4936162;29;20194;-82
2022/05/02 12:49:28;;;;;;;3.70;3.22;;;27.70;48.90;;;;;;4934373;29;20213;-83
2022/05/02 12:51:58;;;;;;;3.33;2.90;;;27.40;49.60;;;;;;4931956;29;20280;-82
2022/05/02 12:54:28;;;;;;;2.55;2.38;;;27.10;49.30;;;;;;4916008;29;20237;-82
2022/05/02 13:02:40;;;;;;;3.00;2.70;;;27.10;50.20;;;;;;4929991;29;20242;-85
2022/05/02 13:05:12;;;;;;;2.85;2.60;;;26.90;50.30;;;;;;4919444;29;20222;-85
2022/05/02 13:07:46;;;;;;;2.90;2.70;;;26.60;49.00;;;;;;4931987;29;20218;-85
2022/05/02 13:10:21;;;;;;;3.28;2.88;;;26.50;48.90;;;;;;4936069;29;20232;-85
2022/05/02 13:13:02;;;;;;;3.22;3.03;;;26.20;50.70;;;;;;4935624;29;20324;-85
2022/05/02 13:15:32;;;;;;;2.92;2.45;;;25.80;49.60;;;;;;4935670;29;20226;-85
2022/05/02 13:18:02;;;;;;;2.95;2.72;;;25.70;50.90;;;;;;4935824;29;20194;-85
2022/05/02 13:20:59;;;;;;;4.18;3.15;;;25.50;51.10;;;;;;4920145;29;20210;-85
2022/05/02 13:23:37;;;;;;;3.67;3.17;;;25.30;52.70;;;;;;4927664;29;20226;-85
2022/05/02 13:26:37;;;;;;;3.50;3.20;;;25.00;52.30;;;;;;4920376;29;20281;-85
2022/05/02 13:29:10;;;;;;;4.63;3.15;;;24.90;52.40;;;;;;4920337;29;20274;-85
2022/05/02 13:31:52;;;;;;;3.22;2.92;;;24.70;53.20;;;;;;4920408;29;20288;-85
2022/05/02 13:34:29;;;;;;;2.95;2.70;;;24.60;53.40;;;;;;4920123;29;20260;-85
2022/05/02 13:37:05;;;;;;;2.63;2.42;;;24.40;52.00;;;;;;4920607;29;20203;-85
2022/05/02 13:39:47;;;;;;;3.92;2.47;;;24.40;52.00;;;;;;4920132;29;20291;-85
2022/05/02 13:42:27;;;;;;;2.95;2.63;;;24.30;52.40;;;;;;4920006;29;20234;-85
2022/05/02 13:44:58;;;;;;;3.30;2.80;;;24.30;53.40;;;;;;4938127;29;20301;-85
2022/05/02 13:47:31;;;;;;;3.47;3.17;;;24.20;53.50;;;;;;4939007;29;20225;-85
2022/05/02 13:50:08;;;;;;;3.10;2.75;;;24.20;53.40;;;;;;4938803;29;20211;-85
2022/05/02 13:52:51;;;;;;;3.30;3.00;;;24.20;53.50;;;;;;4938746;29;20230;-85
2022/05/02 13:55:47;;;;;;;2.95;2.70;;;24.00;53.40;;;;;;4927209;29;20218;-85
2022/05/02 13:58:30;;;;;;;3.40;3.10;;;24.00;53.50;;;;;;4919596;29;20210;-85
2022/05/02 14:01:26;;;;;;;2.40;2.25;;;24.00;53.00;;;;;;4919816;29;20206;-84
2022/05/02 14:03:59;;;;;;;3.42;2.92;;;24.00;52.20;;;;;;4935322;29;20209;-84
2022/05/02 14:06:34;;;;;;;2.45;2.25;;;24.10;53.20;;;;;;4927907;29;20202;-85
2022/05/02 14:09:03;;;;;;;2.50;2.30;;;24.10;52.20;;;;;;4935389;29;20250;-85
2022/05/02 14:11:31;;;;;;;3.80;2.35;;;24.10;52.60;;;;;;4926745;29;20281;-85
2022/05/02 14:14:09;;;;;;;2.53;2.33;;;24.00;52.60;;;;;;4938899;29;20261;-83
2022/05/02 14:16:38;;;;;;;2.53;2.33;;;23.90;52.00;;;;;;4927902;29;20202;-86
2022/05/02 14:19:12;;;;;;;2.17;2.03;;;23.90;52.60;;;;;;4919857;29;20210;-83
2022/05/02 14:21:50;;;;;;;2.55;2.35;;;24.00;53.20;;;;;;4919288;29;20236;-84
2022/05/02 14:24:21;;;;;;;2.85;2.60;;;23.80;53.20;;;;;;4919631;29;20207;-84
2022/05/02 14:26:57;;;;;;;2.42;2.25;;;23.90;53.20;;;;;;4937710;29;20261;-83
2022/05/02 14:29:31;;;;;;;2.63;2.42;;;24.00;54.30;;;;;;4938261;29;20217;-85
2022/05/02 14:32:07;;;;;;;2.50;2.13;;;24.20;54.80;;;;;;4937892;29;20237;-84
2022/05/02 14:34:40;;;;;;;2.80;2.33;;;24.30;54.10;;;;;;4927856;29;20225;-84
2022/05/02 14:37:10;;;;;;;2.72;2.30;;;24.50;53.40;;;;;;4921568;29;20207;-84
2022/05/02 14:39:42;;;;;;;2.60;2.40;;;24.40;53.10;;;;;;4938045;29;20297;-84
2022/05/02 14:42:11;;;;;;;2.55;2.35;;;24.40;53.20;;;;;;4925878;29;20227;-83